createdAt,value
2018-12-24T00:01:32.309Z,6.40
2018-12-24T00:04:02.271Z,6.40
2018-12-24T00:06:30.509Z,6.40
2018-12-24T00:08:57.985Z,6.40
2018-12-24T00:11:25.454Z,6.30
2018-12-24T00:13:53.732Z,6.40
2018-12-24T00:16:21.192Z,6.30
2018-12-24T00:18:48.642Z,6.30
2018-12-24T00:21:16.214Z,6.30
2018-12-24T00:23:43.789Z,6.30
2018-12-24T00:26:11.370Z,6.40
2018-12-24T00:28:39.651Z,6.60
2018-12-24T00:31:07.878Z,6.60
2018-12-24T00:33:35.336Z,6.60
2018-12-24T00:36:04.489Z,6.70
2018-12-24T00:38:32.727Z,6.70
2018-12-24T00:41:00.185Z,6.60
2018-12-24T00:43:27.664Z,6.60
2018-12-24T00:45:55.237Z,6.70
2018-12-24T00:48:23.501Z,6.60
2018-12-24T00:50:51.075Z,6.60
2018-12-24T00:53:18.538Z,6.50
2018-12-24T00:55:46.015Z,6.50
2018-12-24T00:58:14.265Z,6.40
2018-12-24T01:00:41.730Z,6.30
2018-12-24T01:03:09.189Z,6.40
2018-12-24T01:05:36.665Z,6.30
2018-12-24T01:08:04.118Z,6.30
2018-12-24T01:10:32.338Z,6.30
2018-12-24T01:13:00.572Z,6.20
2018-12-24T01:15:28.050Z,6.20
2018-12-24T01:17:55.525Z,6.20
2018-12-24T01:20:22.977Z,6.20
2018-12-24T01:22:50.525Z,6.10
2018-12-24T01:25:17.982Z,6.10
2018-12-24T01:27:45.450Z,6.10
2018-12-24T01:30:12.912Z,6.10
2018-12-24T01:32:40.379Z,6.10
2018-12-24T01:35:07.839Z,6.20
2018-12-24T01:37:35.281Z,6.10
2018-12-24T01:40:02.752Z,6.10
2018-12-24T01:42:33.452Z,6.10
2018-12-24T01:44:57.696Z,6.20
2018-12-24T01:47:25.141Z,6.10
2018-12-24T01:49:52.622Z,6.20
2018-12-24T01:52:20.181Z,6.20
2018-12-24T01:54:48.453Z,6.20
2018-12-24T01:57:15.910Z,6.20
2018-12-24T01:59:43.381Z,6.20
2018-12-24T02:02:10.949Z,6.20
2018-12-24T02:04:38.408Z,6.20
2018-12-24T02:07:05.972Z,6.20
2018-12-24T02:09:33.433Z,6.20
2018-12-24T02:12:00.994Z,6.30
2018-12-24T02:14:28.458Z,6.30
2018-12-24T02:16:56.017Z,6.30
2018-12-24T02:19:23.469Z,6.30
2018-12-24T02:21:50.935Z,6.30
2018-12-24T02:24:18.393Z,6.30
2018-12-24T02:26:45.869Z,6.20
2018-12-24T02:29:13.429Z,6.10
2018-12-24T02:31:41.000Z,6.20
2018-12-24T02:34:08.440Z,6.10
2018-12-24T02:36:35.894Z,6.10
2018-12-24T02:39:03.707Z,6.10
2018-12-24T02:41:31.981Z,6.00
2018-12-24T02:43:59.529Z,6.00
2018-12-24T02:46:27.002Z,6.00
2018-12-24T02:48:54.457Z,5.90
2018-12-24T02:51:22.028Z,5.90
2018-12-24T02:53:49.485Z,5.90
2018-12-24T02:56:16.947Z,5.90
2018-12-24T02:58:44.389Z,5.90
2018-12-24T03:01:11.841Z,5.90
2018-12-24T03:03:39.330Z,6.00
2018-12-24T03:06:06.792Z,6.00
2018-12-24T03:08:34.241Z,6.10
2018-12-24T03:11:01.701Z,6.10
2018-12-24T03:13:29.164Z,6.20
2018-12-24T03:15:56.625Z,6.20
2018-12-24T03:18:24.087Z,6.30
2018-12-24T03:20:51.552Z,6.30
2018-12-24T03:23:19.844Z,6.30
2018-12-24T03:25:47.291Z,6.30
2018-12-24T03:28:14.748Z,6.40
2018-12-24T03:30:42.195Z,6.40
2018-12-24T03:33:09.643Z,6.40
2018-12-24T03:35:37.155Z,6.50
2018-12-24T03:38:04.619Z,6.50
2018-12-24T03:40:32.246Z,6.60
2018-12-24T03:43:00.320Z,6.60
2018-12-24T03:45:27.800Z,6.50
2018-12-24T03:47:55.253Z,6.60
2018-12-24T03:50:22.715Z,6.50
2018-12-24T03:52:50.202Z,6.60
2018-12-24T03:55:17.646Z,6.50
2018-12-24T03:57:45.110Z,6.50
2018-12-24T04:00:12.690Z,6.60
2018-12-24T04:02:40.141Z,6.60
2018-12-24T04:05:07.591Z,6.60
2018-12-24T04:07:35.072Z,6.60
2018-12-24T04:10:02.543Z,6.60
2018-12-24T04:12:30.158Z,6.60
2018-12-24T04:14:57.614Z,6.60
2018-12-24T04:17:25.141Z,6.60
2018-12-24T04:19:52.600Z,6.60
2018-12-24T04:22:20.064Z,6.60
2018-12-24T04:24:47.511Z,6.50
2018-12-24T04:27:14.985Z,6.50
2018-12-24T04:29:42.540Z,6.50
2018-12-24T04:32:10.102Z,6.50
2018-12-24T04:34:37.669Z,6.40
2018-12-24T04:37:06.377Z,6.40
2018-12-24T04:39:33.837Z,6.40
2018-12-24T04:42:01.292Z,6.40
2018-12-24T04:44:28.750Z,6.40
2018-12-24T04:46:56.206Z,6.30
2018-12-24T04:49:23.674Z,6.30
2018-12-24T04:51:51.128Z,6.30
2018-12-24T04:54:18.690Z,6.40
2018-12-24T04:56:46.142Z,6.40
2018-12-24T04:59:13.709Z,6.40
2018-12-24T05:01:41.165Z,6.30
2018-12-24T05:04:08.612Z,6.40
2018-12-24T05:06:36.091Z,6.40
2018-12-24T05:09:04.754Z,6.60
2018-12-24T05:11:32.480Z,6.50
2018-12-24T05:14:00.710Z,6.60
2018-12-24T05:16:28.197Z,6.70
2018-12-24T05:18:55.763Z,6.70
2018-12-24T05:21:23.211Z,6.70
2018-12-24T05:23:50.685Z,6.70
2018-12-24T05:26:18.124Z,6.70
2018-12-24T05:28:45.582Z,6.70
2018-12-24T05:31:13.066Z,6.70
2018-12-24T05:33:40.599Z,6.70
2018-12-24T05:36:08.009Z,6.60
2018-12-24T05:38:36.233Z,6.50
2018-12-24T05:41:03.938Z,6.50
2018-12-24T05:43:31.514Z,6.40
2018-12-24T05:46:00.482Z,6.40
2018-12-24T05:48:27.987Z,6.30
2018-12-24T05:50:55.444Z,6.30
2018-12-24T05:53:23.678Z,6.40
2018-12-24T05:55:51.160Z,6.40
2018-12-24T05:58:18.619Z,6.40
2018-12-24T06:00:46.147Z,6.40
2018-12-24T06:03:13.614Z,6.40
2018-12-24T06:05:41.062Z,6.40
2018-12-24T06:08:09.265Z,6.50
2018-12-24T06:10:36.751Z,6.40
2018-12-24T06:13:04.215Z,6.40
2018-12-24T06:15:31.664Z,6.40
2018-12-24T06:17:59.125Z,6.40
2018-12-24T06:20:26.584Z,6.40
2018-12-24T06:22:54.036Z,6.60
2018-12-24T06:25:21.622Z,6.70
2018-12-24T06:27:49.861Z,6.60
2018-12-24T06:30:17.895Z,6.60
2018-12-24T06:32:45.402Z,6.60
2018-12-24T06:35:12.906Z,6.60
2018-12-24T06:37:40.474Z,6.60
2018-12-24T06:40:07.936Z,6.60
2018-12-24T06:42:35.398Z,6.50
2018-12-24T06:45:03.767Z,6.60
2018-12-24T06:47:31.238Z,6.50
2018-12-24T06:49:58.689Z,6.50
2018-12-24T06:52:26.157Z,6.50
2018-12-24T06:54:53.609Z,6.50
2018-12-24T06:57:21.069Z,6.40
2018-12-24T06:59:48.520Z,6.40
2018-12-24T07:02:15.992Z,6.40
2018-12-24T07:04:43.471Z,6.40
2018-12-24T07:07:10.914Z,6.40
2018-12-24T07:09:38.376Z,6.40
2018-12-24T07:12:05.863Z,6.30
2018-12-24T07:14:33.306Z,6.30
2018-12-24T07:17:00.767Z,6.30
2018-12-24T07:19:28.237Z,6.30
2018-12-24T07:21:55.688Z,6.30
2018-12-24T07:24:23.266Z,6.30
2018-12-24T07:26:50.828Z,6.30
2018-12-24T07:29:18.309Z,6.30
2018-12-24T07:31:45.849Z,6.30
2018-12-24T07:34:13.308Z,6.30
2018-12-24T07:36:40.766Z,6.30
2018-12-24T07:39:08.348Z,6.30
2018-12-24T07:41:35.900Z,6.30
2018-12-24T07:44:03.789Z,6.30
2018-12-24T07:46:31.261Z,6.30
2018-12-24T07:48:58.807Z,6.30
2018-12-24T07:51:26.376Z,6.20
2018-12-24T07:53:53.830Z,6.20
2018-12-24T07:56:21.390Z,6.20
2018-12-24T07:58:48.839Z,6.20
2018-12-24T08:01:16.306Z,6.20
2018-12-24T08:03:43.889Z,6.10
2018-12-24T08:06:11.347Z,6.10
2018-12-24T08:08:38.803Z,6.00
2018-12-24T08:11:06.260Z,6.00
2018-12-24T08:13:33.720Z,6.00
2018-12-24T08:16:01.180Z,5.90
2018-12-24T08:18:28.653Z,5.80
2018-12-24T08:20:57.121Z,5.80
2018-12-24T08:23:24.580Z,5.80
2018-12-24T08:25:52.031Z,5.80
2018-12-24T08:28:19.493Z,5.80
2018-12-24T08:30:47.001Z,5.90
2018-12-24T08:33:14.460Z,5.90
2018-12-24T08:35:41.916Z,5.90
2018-12-24T08:38:09.481Z,6.00
2018-12-24T08:40:37.041Z,6.00
2018-12-24T08:43:04.503Z,6.00
2018-12-24T08:45:31.970Z,6.10
2018-12-24T08:47:59.424Z,6.10
2018-12-24T08:50:26.903Z,6.20
2018-12-24T08:52:55.848Z,6.20
2018-12-24T08:55:23.313Z,6.20
2018-12-24T08:57:50.773Z,6.20
2018-12-24T09:00:18.233Z,6.20
2018-12-24T09:02:45.686Z,6.20
2018-12-24T09:05:13.149Z,6.10
2018-12-24T09:07:40.626Z,6.10
2018-12-24T09:10:08.700Z,6.10
2018-12-24T09:12:36.249Z,6.10
2018-12-24T09:15:04.746Z,6.00
2018-12-24T09:17:32.246Z,6.00
2018-12-24T09:19:59.717Z,6.00
2018-12-24T09:22:27.262Z,5.90
2018-12-24T09:24:54.830Z,5.90
2018-12-24T09:27:22.405Z,5.90
2018-12-24T09:29:49.858Z,5.90
2018-12-24T09:32:17.420Z,5.90
2018-12-24T09:34:44.882Z,5.90
2018-12-24T09:37:12.459Z,5.90
2018-12-24T09:39:39.929Z,5.90
2018-12-24T09:42:07.420Z,6.00
2018-12-24T09:44:35.635Z,6.10
2018-12-24T09:47:04.617Z,6.20
2018-12-24T09:49:32.076Z,6.20
2018-12-24T09:51:59.644Z,6.30
2018-12-24T09:54:27.165Z,6.40
2018-12-24T09:56:55.514Z,6.50
2018-12-24T09:59:22.984Z,6.40
2018-12-24T10:01:50.557Z,6.50
2018-12-24T10:04:18.045Z,6.50
2018-12-24T10:06:46.258Z,6.40
2018-12-24T10:09:13.763Z,6.40
2018-12-24T10:11:41.260Z,6.30
2018-12-24T10:14:08.775Z,6.30
2018-12-24T10:16:36.236Z,6.30
2018-12-24T10:19:03.792Z,6.30
2018-12-24T10:21:31.383Z,6.30
2018-12-24T10:23:58.828Z,6.40
2018-12-24T10:26:26.393Z,6.50
2018-12-24T10:28:53.964Z,6.60
2018-12-24T10:31:21.421Z,6.60
2018-12-24T10:33:48.891Z,6.70
2018-12-24T10:36:16.351Z,6.70
2018-12-24T10:38:43.813Z,6.70
2018-12-24T10:41:11.277Z,6.70
2018-12-24T10:43:38.734Z,6.70
2018-12-24T10:46:06.176Z,6.60
2018-12-24T10:48:33.658Z,6.60
2018-12-24T10:51:01.123Z,6.50
2018-12-24T10:53:29.369Z,6.40
2018-12-24T10:55:56.858Z,6.40
2018-12-24T10:58:24.341Z,6.40
2018-12-24T11:00:51.891Z,6.50
2018-12-24T11:03:19.559Z,6.60
2018-12-24T11:05:47.062Z,6.70
2018-12-24T11:08:14.571Z,6.70
2018-12-24T11:10:42.147Z,6.70
2018-12-24T11:13:09.705Z,6.60
2018-12-24T11:15:37.349Z,6.60
2018-12-24T11:18:04.813Z,6.60
2018-12-24T11:20:32.311Z,6.50
2018-12-24T11:23:00.333Z,6.50
2018-12-24T11:25:27.845Z,6.40
2018-12-24T11:27:56.121Z,6.40
2018-12-24T11:30:23.601Z,6.30
2018-12-24T11:32:51.133Z,6.40
2018-12-24T11:35:18.612Z,6.40
2018-12-24T11:37:46.116Z,6.40
2018-12-24T11:40:14.531Z,6.30
2018-12-24T11:42:42.020Z,6.30
2018-12-24T11:45:09.491Z,6.40
2018-12-24T11:47:37.644Z,6.40
2018-12-24T11:50:07.864Z,6.30
2018-12-24T11:52:35.380Z,6.30
2018-12-24T11:55:02.913Z,6.30
2018-12-24T11:57:31.245Z,6.40
2018-12-24T11:59:58.701Z,6.40
2018-12-24T12:02:26.186Z,6.40
2018-12-24T12:04:53.650Z,6.30
2018-12-24T12:07:21.119Z,6.30
2018-12-24T12:09:48.584Z,6.30
2018-12-24T12:12:16.036Z,6.40
2018-12-24T12:14:43.511Z,6.50
2018-12-24T12:17:10.979Z,6.60
2018-12-24T12:19:38.541Z,6.70
2018-12-24T12:22:06.059Z,6.80
2018-12-24T12:24:33.562Z,6.80
2018-12-24T12:27:01.030Z,6.70
2018-12-24T12:29:28.584Z,6.60
2018-12-24T12:31:56.054Z,6.70
2018-12-24T12:34:23.610Z,6.80
2018-12-24T12:36:51.065Z,6.90
2018-12-24T12:39:18.531Z,7.10
2018-12-24T12:41:46.017Z,7.30
2018-12-24T12:44:13.578Z,7.20
2018-12-24T12:46:41.718Z,7.20
2018-12-24T12:49:09.211Z,7.10
2018-12-24T12:51:36.694Z,7.00
2018-12-24T12:54:04.248Z,7.10
2018-12-24T12:56:31.695Z,7.10
2018-12-24T12:58:59.258Z,7.10
2018-12-24T13:01:26.823Z,7.10
2018-12-24T13:03:54.301Z,7.00
2018-12-24T13:06:21.762Z,7.10
2018-12-24T13:08:49.213Z,7.00
2018-12-24T13:11:16.782Z,7.10
2018-12-24T13:13:44.261Z,7.10
2018-12-24T13:16:12.477Z,7.00
2018-12-24T13:18:39.954Z,7.00
2018-12-24T13:21:07.458Z,7.00
2018-12-24T13:23:34.931Z,6.90
2018-12-24T13:26:04.089Z,6.90
2018-12-24T13:28:31.559Z,6.90
2018-12-24T13:30:59.029Z,7.00
2018-12-24T13:33:26.498Z,7.00
2018-12-24T13:35:54.047Z,7.10
2018-12-24T13:38:21.518Z,7.10
2018-12-24T13:40:49.755Z,7.20
2018-12-24T13:43:17.261Z,7.10
2018-12-24T13:45:44.742Z,7.20
2018-12-24T13:48:12.293Z,7.30
2018-12-24T13:50:40.533Z,7.30
2018-12-24T13:53:08.869Z,7.20
2018-12-24T13:55:36.325Z,7.30
2018-12-24T13:58:04.768Z,7.30
2018-12-24T14:00:32.801Z,7.30
2018-12-24T14:03:01.067Z,7.20
2018-12-24T14:05:28.514Z,7.20
2018-12-24T14:07:55.959Z,7.20
2018-12-24T14:10:23.426Z,7.30
2018-12-24T14:12:50.891Z,7.30
2018-12-24T14:15:18.351Z,7.30
2018-12-24T14:17:45.806Z,7.30
2018-12-24T14:20:13.255Z,7.30
2018-12-24T14:22:40.737Z,7.30
2018-12-24T14:25:08.789Z,7.30
2018-12-24T14:27:36.273Z,7.40
2018-12-24T14:30:04.631Z,7.30
2018-12-24T14:32:32.153Z,7.30
2018-12-24T14:34:59.594Z,7.30
2018-12-24T14:37:27.062Z,7.40
2018-12-24T14:39:54.508Z,7.40
2018-12-24T14:42:21.999Z,7.30
2018-12-24T14:44:50.249Z,7.30
2018-12-24T14:47:17.804Z,7.30
2018-12-24T14:49:45.375Z,7.30
2018-12-24T14:52:12.843Z,7.20
2018-12-24T14:54:41.831Z,7.20
2018-12-24T14:57:09.306Z,7.20
2018-12-24T14:59:36.771Z,7.20
2018-12-24T15:02:05.034Z,7.20
2018-12-24T15:04:32.497Z,7.20
2018-12-24T15:07:00.070Z,7.30
2018-12-24T15:09:27.526Z,7.20
2018-12-24T15:11:54.972Z,7.20
2018-12-24T15:14:22.433Z,7.20
2018-12-24T15:16:49.920Z,7.20
2018-12-24T15:19:17.397Z,7.10
2018-12-24T15:21:44.940Z,7.10
2018-12-24T15:24:12.409Z,7.00
2018-12-24T15:26:39.865Z,7.00
2018-12-24T15:29:07.357Z,7.00
2018-12-24T15:31:35.609Z,6.90
2018-12-24T15:34:04.382Z,6.90
2018-12-24T15:36:32.292Z,6.90
2018-12-24T15:38:59.300Z,6.90
2018-12-24T15:41:26.773Z,6.90
2018-12-24T15:43:54.350Z,6.80
2018-12-24T15:46:21.908Z,6.80
2018-12-24T15:48:49.365Z,6.80
2018-12-24T15:51:16.940Z,6.70
2018-12-24T15:53:44.394Z,6.70
2018-12-24T15:56:11.963Z,6.70
2018-12-24T15:58:39.433Z,6.70
2018-12-24T16:01:06.902Z,6.70
2018-12-24T16:03:36.933Z,6.70
2018-12-24T16:06:04.063Z,6.70
2018-12-24T16:08:31.517Z,6.70
2018-12-24T16:10:59.109Z,6.70
2018-12-24T16:13:27.339Z,6.70
2018-12-24T16:15:54.802Z,6.60
2018-12-24T16:18:22.274Z,6.60
2018-12-24T16:20:49.778Z,6.70
2018-12-24T16:23:17.356Z,6.70
2018-12-24T16:25:45.621Z,6.70
2018-12-24T16:28:13.056Z,6.60
2018-12-24T16:30:40.600Z,6.70
2018-12-24T16:33:08.092Z,6.70
2018-12-24T16:35:37.213Z,6.70
2018-12-24T16:38:05.458Z,6.70
2018-12-24T16:40:33.022Z,6.70
2018-12-24T16:43:01.718Z,6.70
2018-12-24T16:45:30.077Z,6.70
2018-12-24T16:47:58.336Z,6.70
2018-12-24T16:50:25.817Z,6.70
2018-12-24T16:52:53.336Z,6.60
2018-12-24T16:55:21.819Z,6.60
2018-12-24T16:57:50.045Z,6.60
2018-12-24T17:00:17.539Z,6.60
2018-12-24T17:02:46.720Z,6.60
2018-12-24T17:05:13.391Z,6.70
2018-12-24T17:07:40.945Z,6.70
2018-12-24T17:10:08.408Z,6.60
2018-12-24T17:12:35.878Z,6.60
2018-12-24T17:15:04.657Z,6.60
2018-12-24T17:17:33.633Z,6.60
2018-12-24T17:20:01.089Z,6.60
2018-12-24T17:22:28.549Z,6.60
2018-12-24T17:24:56.010Z,6.60
2018-12-24T17:27:23.492Z,6.60
2018-12-24T17:29:51.031Z,6.60
2018-12-24T17:32:18.576Z,6.60
2018-12-24T17:34:46.038Z,6.60
2018-12-24T17:37:13.654Z,6.50
2018-12-24T17:39:41.044Z,6.50
2018-12-24T17:42:09.302Z,6.50
2018-12-24T17:44:36.857Z,6.50
2018-12-24T17:47:04.325Z,6.50
2018-12-24T17:49:31.784Z,6.50
2018-12-24T17:51:59.247Z,6.50
2018-12-24T17:54:26.705Z,6.50
2018-12-24T17:56:54.151Z,6.50
2018-12-24T17:59:21.644Z,6.50
2018-12-24T18:01:49.866Z,6.50
2018-12-24T18:04:17.375Z,6.50
2018-12-24T18:06:44.935Z,6.50
2018-12-24T18:09:12.376Z,6.50
2018-12-24T18:11:39.892Z,6.50
2018-12-24T18:14:08.135Z,6.50
2018-12-24T18:16:35.607Z,6.50
2018-12-24T18:19:03.680Z,6.50
2018-12-24T18:21:31.144Z,6.50
2018-12-24T18:23:58.612Z,6.50
2018-12-24T18:26:26.889Z,6.50
2018-12-24T18:28:55.211Z,6.50
2018-12-24T18:31:22.620Z,6.50
2018-12-24T18:33:50.209Z,6.50
2018-12-24T18:36:17.756Z,6.50
2018-12-24T18:38:45.209Z,6.50
2018-12-24T18:41:12.664Z,6.40
2018-12-24T18:43:40.158Z,6.40
2018-12-24T18:46:07.704Z,6.50
2018-12-24T18:48:35.268Z,6.50
2018-12-24T18:51:02.832Z,6.50
2018-12-24T18:53:30.281Z,6.50
2018-12-24T18:55:57.735Z,6.40
2018-12-24T18:58:25.249Z,6.50
2018-12-24T19:00:53.471Z,6.50
2018-12-24T19:03:20.917Z,6.40
2018-12-24T19:05:48.378Z,6.40
2018-12-24T19:08:15.879Z,6.50
2018-12-24T19:10:43.340Z,6.40
2018-12-24T19:13:10.812Z,6.50
2018-12-24T19:15:38.375Z,6.50
2018-12-24T19:18:05.942Z,6.60
2018-12-24T19:20:33.742Z,6.60
2018-12-24T19:23:01.221Z,6.60
2018-12-24T19:25:28.722Z,6.60
2018-12-24T19:27:56.214Z,6.60
2018-12-24T19:30:23.812Z,6.60
2018-12-24T19:32:51.284Z,6.60
2018-12-24T19:35:18.782Z,6.60
2018-12-24T19:37:46.311Z,6.70
2018-12-24T19:40:15.231Z,6.60
2018-12-24T19:42:42.685Z,6.60
2018-12-24T19:45:10.156Z,6.60
2018-12-24T19:47:37.613Z,6.60
2018-12-24T19:50:06.026Z,6.60
2018-12-24T19:52:33.569Z,6.70
2018-12-24T19:55:01.069Z,6.60
2018-12-24T19:57:29.307Z,6.50
2018-12-24T19:59:56.873Z,6.50
2018-12-24T20:02:24.345Z,6.50
2018-12-24T20:04:51.813Z,6.50
2018-12-24T20:07:19.277Z,6.40
2018-12-24T20:09:46.811Z,6.40
2018-12-24T20:12:14.294Z,6.30
2018-12-24T20:14:41.750Z,6.30
2018-12-24T20:17:09.329Z,6.30
2018-12-24T20:19:36.778Z,6.30
2018-12-24T20:22:05.041Z,6.30
2018-12-24T20:24:32.509Z,6.30
2018-12-24T20:26:59.975Z,6.30
2018-12-24T20:29:27.441Z,6.30
2018-12-24T20:31:54.915Z,6.40
2018-12-24T20:34:22.469Z,6.30
2018-12-24T20:36:50.842Z,6.30
2018-12-24T20:39:18.346Z,6.30
2018-12-24T20:41:45.810Z,6.30
2018-12-24T20:44:14.070Z,6.20
2018-12-24T20:46:41.624Z,6.20
2018-12-24T20:49:09.121Z,6.20
2018-12-24T20:51:36.564Z,6.30
2018-12-24T20:54:04.787Z,6.30
2018-12-24T20:56:32.261Z,6.30
2018-12-24T20:58:59.755Z,6.30
2018-12-24T21:01:27.217Z,6.30
2018-12-24T21:03:54.675Z,6.30
2018-12-24T21:06:22.229Z,6.30
2018-12-24T21:08:49.704Z,6.20
2018-12-24T21:11:17.256Z,6.20
2018-12-24T21:13:44.732Z,6.20
2018-12-24T21:16:13.006Z,6.20
2018-12-24T21:18:41.610Z,6.20
2018-12-24T21:21:08.023Z,6.20
2018-12-24T21:23:35.495Z,6.20
2018-12-24T21:26:03.872Z,6.20
2018-12-24T21:28:31.317Z,6.20
2018-12-24T21:30:58.794Z,6.20
2018-12-24T21:33:26.263Z,6.30
2018-12-24T21:35:53.716Z,6.30
2018-12-24T21:38:21.181Z,6.40
2018-12-24T21:40:48.628Z,6.40
2018-12-24T21:43:16.086Z,6.40
2018-12-24T21:45:43.576Z,6.40
2018-12-24T21:48:11.157Z,6.40
2018-12-24T21:50:38.613Z,6.40
2018-12-24T21:53:06.075Z,6.40
2018-12-24T21:55:33.642Z,6.40
2018-12-24T21:58:01.092Z,6.40
2018-12-24T22:00:28.560Z,6.30
2018-12-24T22:02:56.043Z,6.30
2018-12-24T22:05:24.260Z,6.40
2018-12-24T22:07:51.761Z,6.40
2018-12-24T22:10:19.357Z,6.40
2018-12-24T22:12:47.611Z,6.40
2018-12-24T22:15:15.076Z,6.40
2018-12-24T22:17:42.541Z,6.40
2018-12-24T22:20:10.026Z,6.40
2018-12-24T22:22:38.374Z,6.40
2018-12-24T22:25:05.840Z,6.40
2018-12-24T22:27:33.308Z,6.40
2018-12-24T22:30:00.861Z,6.40
2018-12-24T22:32:28.356Z,6.30
2018-12-24T22:34:56.586Z,6.40
2018-12-24T22:37:24.094Z,6.40
2018-12-24T22:39:52.995Z,6.50
2018-12-24T22:42:21.218Z,6.50
2018-12-24T22:44:48.702Z,6.40
2018-12-24T22:47:16.214Z,6.40
2018-12-24T22:49:43.662Z,6.30
2018-12-24T22:52:11.202Z,6.30
2018-12-24T22:54:38.648Z,6.20
2018-12-24T22:57:06.117Z,6.30
2018-12-24T22:59:34.342Z,6.30
2018-12-24T23:02:01.878Z,6.30
2018-12-24T23:04:30.133Z,6.20
2018-12-24T23:06:57.713Z,6.20
2018-12-24T23:09:25.960Z,6.20
2018-12-24T23:11:53.413Z,6.20
2018-12-24T23:14:20.905Z,6.20
2018-12-24T23:16:48.475Z,6.10
2018-12-24T23:19:16.023Z,6.10
2018-12-24T23:21:43.500Z,6.10
2018-12-24T23:24:11.061Z,6.30
2018-12-24T23:26:38.531Z,6.30
2018-12-24T23:29:06.135Z,6.30
2018-12-24T23:31:33.607Z,6.30
2018-12-24T23:34:01.101Z,6.30
2018-12-24T23:36:28.572Z,6.20
2018-12-24T23:38:56.872Z,6.20
2018-12-24T23:41:24.414Z,6.20
2018-12-24T23:43:51.983Z,6.20
2018-12-24T23:46:19.455Z,6.20
2018-12-24T23:48:47.021Z,6.20
2018-12-24T23:51:14.480Z,6.30
2018-12-24T23:53:41.955Z,6.30
2018-12-24T23:56:10.189Z,6.20
2018-12-24T23:58:37.672Z,6.20
